Tiempo atmosférico en la estación meteorológica de Navalmoral De La Mata, Cáceres (269 m.)



Fecha
DESCASC
Temp. máxima en grados centígrados (hora)
DESCASC
Temp. mínima en grados centígrados (hora)
DESCASC
Temp. media en grados centígrados
DESCASC
Racha de viento máxima en m/sg (hora)
DESCASC
Velocidad máxima media en intervalos de 10 minutos(hora)
DESCASC
Precipitaciones diarias en mm
DESCASC
Precipitaciones de 00:00 a 06:00 en mm
DESCASC
Precipitaciones de 06:00 a 12:00 en mm
DESCASC
Precipitaciones de 12:00 a 18:00 en mm
DESCASC
Precipitaciones de 18:00 a 24:00 en mm
DESCASC
14-12-2019 14 (14:30) 7.2 (08:00) 10.6 15.83 (00:40) 8.89 (00:30) 0 0 0 0 0
13-12-2019 17 (14:10) 11.5 (23:10) 14.3 18.33 (22:20) 11.39 (22:10) 0 0 0 0 0
12-12-2019 13.2 (23:59) 3.8 (01:20) 8.5 15 (16:20) 7.78 (17:20) -- 0 0 -- 1
11-12-2019 16.6 (16:30) 2.2 (00:00) 9.4 13.33 (11:10) 6.39 (11:10) 1.4 0 1.4 0 0
10-12-2019 9 (15:00) 3.1 (00:00) 6 5.56 (07:10) 2.78 (07:10) 0 0 0 0 0
09-12-2019 11.1 (17:00) 5.9 (00:00) 8.5 5 (04:30) 2.22 (05:40) 0.2 0 0.2 0 0
08-12-2019 9.1 (23:40) 1.9 (00:00) 5.5 3.61 (23:40) 2.22 (23:40) 1 0 0 1 0
07-12-2019 15.9 (15:10) 2.7 (00:00) 9.3 4.44 (11:00) 2.22 (02:30) 0 0 0 0 0
06-12-2019 16.4 (15:10) 5.5 (00:00) 10.9 7.5 (13:10) 4.17 (13:10) 0 0 0 0 0
05-12-2019 16.1 (15:50) 4.7 (00:00) 10.4 7.78 (14:20) 3.89 (14:50) 0 0 0 0 0
04-12-2019 11.4 (15:00) 5.4 (00:00) 8.4 5.83 (10:10) 2.78 (09:50) 0.2 0.2 0 0 0
03-12-2019 13.7 (15:00) 2.4 (00:00) 8 8.33 (16:40) 4.44 (16:40) 0 0 0 0 0
02-12-2019 15.2 (15:00) 7.6 (00:00) 11.4 12.22 (11:40) 6.11 (11:50) 1.8 1.6 0.2 0 0
01-12-2019 13.5 (12:50) 7 (00:00) 10.3 9.44 (00:10) 4.72 (00:10) 6.8 0.2 3.4 3 0.2
30-11-2019 15.9 (13:20) 10.4 (00:00) 13.1 11.94 (21:30) 6.67 (22:00) 4.4 0.4 0 1 3
29-11-2019 16.1 (17:00) 13.5 (00:00) 14.8 7.5 (13:40) 4.17 (13:40) 1.4 0.2 1 0 0.2
28-11-2019 15.1 (16:20) 9.7 (00:00) 12.4 6.94 (22:30) 3.89 (07:30) 0.4 0 0.2 0.2 0
27-11-2019 14.6 (13:10) 10.4 (00:00) 12.5 13.33 (00:10) 6.67 (00:10) 0.8 0.4 0 0.4 0
26-11-2019 15.2 (18:20) 11.5 (00:00) 13.3 11.11 (23:20) 6.39 (23:50) 14.6 0 3.2 10.6 0.8
25-11-2019 17.6 (14:00) 11 (00:00) 14.3 10 (14:30) 5.56 (16:10) 7.8 7.4 0.4 0 0
24-11-2019 15.3 (15:00) 4.4 (00:00) 9.9 11.67 (15:00) 6.39 (15:00) 1.2 0 0 0 1.2
23-11-2019 15.7 (14:20) 9.2 (00:00) 12.4 18.06 (09:20) 10.28 (09:10) 0.2 0.2 0 0 0
22-11-2019 16.2 (16:20) 9 (00:00) 12.6 18.33 (18:30) 7.78 (22:40) 29.8 2.8 20.8 6 0.2
21-11-2019 13.2 (16:40) 7.5 (00:00) 10.3 4.44 (17:50) 2.22 (10:10) 6.4 2.8 3 0.6 0
20-11-2019 8.5 (15:20) 6.2 (00:00) 7.3 5 (08:50) 2.78 (15:50) 9.2 0 4.2 4.8 0.2
19-11-2019 11.5 (14:40) -0.9 (-00:0) 5.3 5.83 (02:30) 2.22 (02:40) 0 0 0 0 0
18-11-2019 16.5 (16:00) 0.8 (00:00) 8.7 6.39 (14:10) 3.33 (14:10) 0.2 0 0.2 0 0
17-11-2019 10 (20:00) 4.5 (00:00) 7.3 11.39 (19:40) 6.11 (14:20) 3.6 0 0 3.2 0.4
16-11-2019 14.9 (15:00) -1.7 (-00:0) 6.6 11.39 (15:30) 6.11 (15:10) 0 0 0 0 0

Gráficas

Temp. máximas Temp. mínimas Temp. medias Precipitaciones Rachas de viento máximas Velocidades máximas media en intervalos de 10 minutos

Datos horarios

Fecha y hora oficial Temperatura (ºC) Velocidad del viento (km/h) Dirección del viento Racha (km/h) Dirección de racha Precipitación (mm) Presión (hPa) Tendencia (hPa) Humedad (%)
2019-12-15 23:00:00 11.3 8 Este 15 Nordeste 0 977.6 -1.8 86
2019-12-15 22:00:00 11.3 9 Este 17 Nordeste 0 978.2 -1.4 89
2019-12-15 21:00:00 11.2 6 Nordeste 13 Este 0 978.9 -1.1 90
2019-12-15 20:00:00 11.4 4 Nordeste 13 Este 0 979.4 -0.8 90
2019-12-15 19:00:00 11.5 6 Este 12 Este 0 979.6 -0.9 90
2019-12-15 18:00:00 11.7 6 Este 12 Nordeste 0 980 -1.2 90
2019-12-15 17:00:00 12 8 Norte 18 Nordeste 0 980.2 -1.8 90
2019-12-15 16:00:00 12.4 8 Norte 16 Norte 0 980.5 -2.7 87
2019-12-15 15:00:00 13.7 7 Oeste 24 Oeste 0 981.2 -2.8 74
2019-12-15 14:00:00 13.9 10 Sudoeste 26 Sudoeste 0 982 -2.6 74
2019-12-15 13:00:00 13.1 13 Sudoeste 22 Sudoeste 0 983.2 -1.3 78
2019-12-15 12:00:00 13 6 Sudoeste 19 Sudoeste 0 984 -0.2 78
2019-12-15 11:00:00 12.6 12 Sudoeste 19 Sudoeste 0 984.6 0.3 78
2019-12-15 10:00:00 11.9 5 Oeste 10 Oeste 0 984.5 0.3 87
2019-12-15 09:00:00 10.5 0 Calma 5 Sudoeste 0 984.2 -0.2 91
2019-12-15 08:00:00 10.6 3 Oeste 8 Oeste 0 984.3 -0.4 90
2019-12-15 07:00:00 10.8 4 Noroeste 14 Oeste 0 984.2 -0.9 90
2019-12-15 06:00:00 10.6 3 Oeste 6 Noroeste 0 984.4 -1.1 89
2019-12-15 05:00:00 10.8 2 Oeste 9 Sudoeste 0 984.7 -1.1 88
2019-12-15 04:00:00 11.4 4 Oeste 10 Oeste 0 985.1 -1.3 87
2019-12-15 03:00:00 11.6 8 Oeste 14 Oeste 0 985.5 -1.3 86
2019-12-15 02:00:00 11.7 7 Oeste 13 Oeste 0 985.8 -1.1 85
2019-12-15 01:00:00 11.7 5 Oeste 14 Oeste 0 986.4 -0.6 84
2019-12-15 00:00:00 11.7 6 Oeste 12 Oeste 0 986.8 -0.3 84
2019-12-14 23:00:00 11.6 6 Oeste 12 Oeste 0 986.9 -0.2 84
2019-12-14 22:00:00 11.9 8 Oeste 13 Oeste 0 987 0 82
2019-12-14 21:00:00 11.8 8 Oeste 13 Oeste 0 987.1 -0.1 81
2019-12-14 20:00:00 12 8 Oeste 13 Oeste 0 987.1 -0.1 80
2019-12-14 19:00:00 12.4 6 Oeste 10 Sudoeste 0 987 0 81
2019-12-14 18:00:00 12.8 6 Oeste 17 Oeste 0 987.2 0.4 79
2019-12-14 17:00:00 13.4 11 Oeste 20 Sudoeste 0 987.2 -0.3 76
2019-12-14 16:00:00 13.6 12 Oeste 30 Oeste 0 987 -1.1 73
2019-12-14 15:00:00 13.5 15 Oeste 30 Oeste 0 986.8 -2.1 75
2019-12-14 14:00:00 13.6 18 Oeste 31 Oeste 0 987.5 -1.5 76
2019-12-14 13:00:00 13.5 18 Oeste 31 Oeste 0 988.1 -0.5 78
2019-12-14 12:00:00 13 11 Oeste 25 Oeste 0 988.9 0.9 80
2019-12-14 11:00:00 12.7 10 Oeste 21 Oeste 0 989 1 80
2019-12-14 10:00:00 10.9 9 Oeste 18 Oeste 0 988.6 1 88
2019-12-14 09:00:00 7.8 2 Norte 14 Noroeste 0 988 0.9 90
2019-12-14 08:00:00 7.2 6 Oeste 12 Oeste 0 988 1 90
2019-12-14 07:00:00 8.8 3 Oeste 24 Noroeste 0 987.6 0.3 88
2019-12-14 06:00:00 9.4 9 Oeste 22 Oeste 0 987.1 -0.1 87
2019-12-14 05:00:00 9.8 4 Noroeste 21 Oeste 0 987 0.2 87
2019-12-14 04:00:00 10.2 10 Oeste 35 Oeste 0 987.3 0.9 89
2019-12-14 03:00:00 10.3 15 Oeste 41 Oeste 0 987.2 0.6 89
2019-12-14 02:00:00 10.8 17 Oeste 45 Oeste 0 986.8 0.6 87
2019-12-14 01:00:00 11.5 30 Oeste 57 Oeste 0 986.4 0.4 86
2019-12-14 00:00:00 11.5 28 Oeste 54 Oeste 0 986.6 -0.1 87
2019-12-13 23:00:00 11.7 30 Oeste 66 Oeste 0 986.2 -0.7 85
2019-12-13 22:00:00 12.4 38 Oeste 60 Oeste 0 986 -0.8 82
2019-12-13 21:00:00 13.1 35 Oeste 53 Oeste 0 986.7 -0.1 80
2019-12-13 20:00:00 13.2 27 Oeste 45 Oeste 0 986.9 0.2 79
2019-12-13 19:00:00 14.2 26 Oeste 48 Oeste 0 986.8 0.3 75
2019-12-13 18:00:00 14.9 29 Oeste 54 Oeste 0 986.8 0.6 72
2019-12-13 17:00:00 15.7 24 Oeste 41 Oeste 0 986.7 -0.2 69
2019-12-13 16:00:00 15.9 19 Oeste 55 Oeste 0 986.5 -1 69
2019-12-13 15:00:00 16 24 Oeste 62 Oeste 0 986.2 -1.3 67
2019-12-13 14:00:00 16.7 22 Oeste 51 Oeste 0 986.9 -1.1 63
2019-12-13 13:00:00 16.5 23 Oeste 46 Oeste 0 987.5 0.4 65
2019-12-13 12:00:00 16 24 Sudoeste 46 Sudoeste 0 987.5 1.1 70
2019-12-13 11:00:00 13.8 25 Oeste 40 Sudoeste 0 988 2.6 79
2019-12-13 10:00:00 12.5 21 Sudoeste 38 Oeste 0 987.1 2.5 82
2019-12-13 09:00:00 11.7 18 Oeste 38 Oeste 0 986.4 2.1 83
2019-12-13 08:00:00 11.7 22 Oeste 45 Oeste 0 985.4 1.3 82
2019-12-13 07:00:00 12.3 26 Oeste 52 Oeste 0 984.6 0.5 80
2019-12-13 06:00:00 12.4 25 Oeste 51 Oeste 0 984.3 0.5 83
2019-12-13 05:00:00 12.8 27 Oeste 50 Oeste 0 984.1 0.5 82
2019-12-13 04:00:00 13.3 25 Oeste 48 Oeste 0 984.1 -0.2 82
2019-12-13 03:00:00 13.8 30 Oeste 57 Oeste 0 983.8 0.1 81
2019-12-13 02:00:00 13.7 22 Oeste 42 Oeste 0 983.6 -0.8 83
2019-12-13 01:00:00 13.2 17 Oeste 42 Oeste 0 984.3 0.2 86
2019-12-13 00:00:00 13.2 26 Oeste 46 Oeste 0 983.7 -1.1 85
2019-12-12 23:00:00 12.7 20 Oeste 47 Oeste 0 984.4 -0.5 87
2019-12-12 22:00:00 12.2 19 Oeste 40 Oeste 0 984.1 -1.2 89
2019-12-12 21:00:00 11.7 23 Oeste 48 Oeste 0.2 984.8 -0.8 90
2019-12-12 20:00:00 11.4 23 Oeste 44 Oeste 0.4 984.9 -1 90
2019-12-12 19:00:00 11 19 Oeste 40 Oeste 0.4 985.3 -1.2 90
2019-12-12 18:00:00 11.3 24 Oeste 50 Oeste 0 985.6 -1.6 83
2019-12-12 17:00:00 12 23 Oeste 54 Oeste 0 985.9 -2.7 77
2019-12-12 16:00:00 11.7 24 Oeste 53 Oeste 0 986.5 -3.2 79
2019-12-12 15:00:00 11.3 27 Oeste 45 Oeste 0.2 987.2 -3.5 81
2019-12-12 14:00:00 10.7 6 Oeste 21 Oeste 0 988.6 -2.9 80
2019-12-12 13:00:00 10.1 11 Oeste 31 Noroeste -- 989.7 -2.3 81
2019-12-12 12:00:00 10.2 12 Noroeste 32 Oeste -- 990.7 -0.3 79
2019-12-12 11:00:00 9 15 Oeste 39 Oeste 0 991.5 0.4 82
2019-12-12 10:00:00 7.7 17 Oeste 36 Oeste 0 992 0.7 84
2019-12-12 09:00:00 7.1 22 Oeste 43 Oeste 0 991 0.1 83
2019-12-12 08:00:00 7.5 20 Oeste 37 Oeste 0 991.1 -0.4 80
2019-12-12 07:00:00 7.4 23 Oeste 50 Oeste 0 991.3 -0.9 78
2019-12-12 06:00:00 8 21 Oeste 42 Oeste 0 990.9 -1.6 72
2019-12-12 05:00:00 7.5 6 Noroeste 29 Oeste 0 991.5 -1.5 73
2019-12-12 04:00:00 6.8 5 Oeste 31 Oeste 0 992.2 -1.4 75
2019-12-12 03:00:00 7.1 9 Oeste 22 Oeste 0 992.5 -1.2 74
2019-12-12 02:00:00 5.1 7 Sudoeste 13 Oeste 0 993 -0.8 80
2019-12-12 01:00:00 4.7 4 Oeste 14 Sur 0 993.6 -0.5 76
2019-12-12 00:00:00 5.8 8 Sudoeste 19 Sudoeste 0 993.7 -0.6 71
2019-12-11 23:00:00 6.5 10 Sudoeste 20 Sudoeste 0 993.8 -0.4 69
2019-12-11 22:00:00 5.2 7 Sudoeste 13 Sudoeste 0 994.1 0.8 73
2019-12-11 21:00:00 6.9 5 Sudoeste 13 Sur 0 994.3 1.7 65
2019-12-11 20:00:00 7.6 5 Sur 14 Sudoeste 0 994.2 2.4 63
2019-12-11 19:00:00 8.8 8 Sur 14 Sur 0 993.3 2.1 59
2019-12-11 18:00:00 12.1 8 Sur 13 Sudeste 0 992.6 1.9 51
2019-12-11 17:00:00 15.5 3 Norte 15 Oeste 0 991.8 1.2 41
2019-12-11 16:00:00 16.1 8 Sudoeste 18 Sur 0 991.2 0 35
2019-12-11 15:00:00 16 6 Sur 13 Sur 0 990.7 -1.3 49
2019-12-11 14:00:00 14.1 4 Nordeste 22 Oeste 0 990.6 -1.6 61
2019-12-11 13:00:00 13.3 8 Oeste 23 Oeste 0 991.2 -1.2 72
2019-12-11 12:00:00 10.9 10 Oeste 48 Oeste 0 992 -0.6 82
2019-12-11 11:00:00 8 19 Oeste 35 Oeste 0.4 992.2 -0.3 92
2019-12-11 10:00:00 7.5 18 Sudoeste 31 Sudoeste 0.8 992.4 0.5 94
2019-12-11 09:00:00 6.1 6 Sudoeste 10 Oeste 0.2 992.6 0.7 94
2019-12-11 08:00:00 5.8 0 Calma 5 Noroeste 0 992.5 0.1 94
2019-12-11 07:00:00 5.6 2 Este 5 Sudeste 0 991.9 -1.2 94
2019-12-11 06:00:00 5.3 0 Calma 4 Este 0 991.9 -1.2 94
2019-12-11 05:00:00 5 3 Este 5 Nordeste 0 992.4 -1.1 94
2019-12-11 04:00:00 4.8 2 Norte 7 Nordeste 0 993.1 -1.1 94
2019-12-11 03:00:00 4.7 2 Este 4 Este 0 993.1 -1.4 94
2019-12-11 02:00:00 3.6 2 Nordeste 6 Este 0 993.5 -1 94
2019-12-11 01:00:00 2.4 2 Sur 3 Sur 0 994.2 -0.3 93
2019-12-11 00:00:00 3.1 0 Calma 8 Norte 0 994.5 -0.5 93
2019-12-10 23:00:00 4 4 Nordeste 8 Sudeste 0 994.5 -0.6 93
2019-12-10 22:00:00 4.1 5 Sudeste 8 Sudeste 0 994.5 -0.5 92
2019-12-10 21:00:00 4.1 5 Sur 6 Sur 0 995 -0.5 91
2019-12-10 20:00:00 5.1 3 Sur 4 Sur 0 995.1 -0.4 89
2019-12-10 19:00:00 6.3 3 Nordeste 8 Nordeste 0 995 -0.8 87
2019-12-10 18:00:00 7.4 3 Nordeste 8 Este 0 995.5 -0.5 84
2019-12-10 17:00:00 8.4 5 Este 9 Nordeste 0 995.5 -1.4 79
2019-12-10 16:00:00 8.9 5 Sudeste 10 Este 0 995.8 -1.4 76
2019-12-10 15:00:00 8.9 6 Sudeste 13 Este 0 996 -2.3 75
2019-12-10 14:00:00 8.5 4 Sudeste 14 Sudeste 0 996.9 -2 79
2019-12-10 13:00:00 8.2 6 Sur 15 Sudeste 0 997.2 -1.4 81
2019-12-10 12:00:00 7.9 6 Sur 14 Sur 0 998.3 -0.2 83
2019-12-10 11:00:00 7.6 4 Sudeste 13 Sudeste 0 998.9 0.5 83
2019-12-10 10:00:00 7.7 7 Sudeste 17 Este 0 998.6 0.4 84
2019-12-10 09:00:00 7.4 8 Este 19 Este 0 998.5 0.7 85
2019-12-10 08:00:00 7.7 8 Este 20 Este 0 998.4 0.3 87
2019-12-10 07:00:00 7.8 8 Este 19 Este 0 998.2 0.1 88
2019-12-10 06:00:00 8.4 7 Este 12 Sudeste 0 997.8 -0.2 92
2019-12-10 05:00:00 8.5 4 Este 8 Este 0 998.1 -0.2 92
2019-12-10 04:00:00 8.5 4 Sudeste 9 Este 0 998.1 -0.7 92
2019-12-10 03:00:00 8.4 6 Este 9 Este 0 998 -0.5 92
2019-12-10 02:00:00 8.4 2 Nordeste 10 Este 0 998.3 -0.1 93
2019-12-10 01:00:00 8.2 5 Este 10 Este 0 998.8 0.6 93
2019-12-10 00:00:00 7.2 5 Este 10 Nordeste 0 998.5 0 93
2019-12-09 23:00:00 6 3 Sudeste 8 Este 0 998.4 0.4 92
2019-12-09 22:00:00 7 5 Nordeste 7 Nordeste 0 998.2 0.6 92
2019-12-09 21:00:00 7.8 2 Sur 10 Sudeste 0 998.5 1.5 91
2019-12-09 20:00:00 8.2 5 Sudeste 10 Sudeste 0 998 0.7 90
2019-12-09 19:00:00 8.5 6 Nordeste 8 Nordeste 0 997.6 0.1 89
2019-12-09 18:00:00 9.8 3 Este 5 Norte 0 997 -0.4 84
2019-12-09 17:00:00 11 4 Norte 10 Oeste 0 997.3 -0.7 80
2019-12-09 16:00:00 10.9 6 Oeste 15 Oeste 0 997.5 -0.9 82
2019-12-09 15:00:00 10.8 3 Oeste 13 Oeste 0 997.4 -1.4 85
2019-12-09 14:00:00 10.7 4 Oeste 9 Oeste 0 998 -1.1 90
2019-12-09 13:00:00 10.6 0 Calma 5 Noroeste 0 998.4 -0.1 92
2019-12-09 12:00:00 10.1 2 Norte 6 Este 0 998.8 1 93
2019-12-09 11:00:00 9.6 3 Nordeste 6 Este 0 999.1 2.1 93
2019-12-09 10:00:00 9 3 Oeste 8 Norte 0 998.5 2.1 93
2019-12-09 09:00:00 9 2 Oeste 7 Noroeste 0.2 997.8 1.8 94
2019-12-09 08:00:00 8.8 2 Nordeste 9 Este 0 997 1.3 94
2019-12-09 07:00:00 8.7 5 Este 16 Este 0 996.4 0.9 94
2019-12-09 06:00:00 8.7 6 Nordeste 15 Nordeste 0 996 0.6 94
2019-12-09 05:00:00 9 5 Nordeste 18 Este 0 995.7 0.4 93
2019-12-09 04:00:00 8.9 3 Sudeste 10 Nordeste 0 995.5 0.3 93
2019-12-09 03:00:00 8.9 2 Nordeste 5 Norte 0 995.4 0.3 92
2019-12-09 02:00:00 8.8 3 Norte 7 Nordeste 0 995.3 0.8 92
2019-12-09 01:00:00 9 2 Nordeste 14 Nordeste 0 995.2 0.7 92
2019-12-09 00:00:00 9 8 Nordeste 13 Nordeste 0 995.1 0.5 93
2019-12-08 23:00:00 9 3 Este 8 Este 0 994.5 0 93
2019-12-08 22:00:00 8.9 5 Nordeste 8 Sudeste 0 994.5 0.4 93
2019-12-08 21:00:00 8.9 3 Este 6 Sudeste 0 994.6 0.9 93
2019-12-08 20:00:00 8.9 3 Este 6 Nordeste 0 994.5 0.8 92
2019-12-08 19:00:00 8.8 3 Norte 8 Sudeste 0 994.1 0.5 92
2019-12-08 18:00:00 8.6 4 Este 7 Este 0 993.7 0.4 92
2019-12-08 17:00:00 8.7 6 Este 10 Este 0.6 993.7 -0.1 91
2019-12-08 16:00:00 8.8 4 Sudeste 9 Nordeste 0.2 993.6 -0.7 90
2019-12-08 15:00:00 8.5 3 Oeste 9 Oeste 0.2 993.3 -1.8 89
2019-12-08 14:00:00 8 4 Oeste 8 Oeste 0 993.8 -1.4 91
2019-12-08 13:00:00 7.1 3 Oeste 7 Sudoeste 0 994.3 -0.7 94
2019-12-08 12:00:00 5.9 3 Nordeste 9 Nordeste 0 995.1 0.7 94
2019-12-08 11:00:00 4.9 3 Nordeste 9 Nordeste 0 995.2 1.1 94
2019-12-08 10:00:00 4.4 3 Norte 8 Noroeste 0 995 1.4 94
2019-12-08 09:00:00 3.5 3 Sur 8 Sur 0 994.4 1 95
2019-12-08 08:00:00 2.7 3 Sur 7 Este 0 994.1 0.8 95
2019-12-08 07:00:00 2.6 2 Nordeste 4 Nordeste 0 993.6 0 94
2019-12-08 06:00:00 2.4 0 Calma 6 Norte 0 993.4 -0.4 94
2019-12-08 05:00:00 2.2 2 Nordeste 5 Norte 0 993.3 -0.5 94
2019-12-08 04:00:00 1.9 3 Sudoeste 6 Oeste 0 993.6 -0.4 94
2019-12-08 03:00:00 2.4 0 Calma 5 Nordeste 0 993.8 -0.3 93
2019-12-08 02:00:00 3.1 4 Nordeste 7 Sudeste 0 993.8 0.2 94
2019-12-08 01:00:00 3.7 4 Este 6 Este 0 994 0.6 93
2019-12-08 00:00:00 3.9 2 Norte 6 Nordeste 0 994.1 1.1 91
2019-12-07 23:00:00 5 2 Sur 5 Sudoeste 0 993.6 0.9 91
2019-12-07 22:00:00 5.6 2 Este 5 Este 0 993.4 1.2 89
2019-12-07 21:00:00 6.5 2 Noroeste 4 Oeste 0 993 1.1 87
2019-12-07 20:00:00 7.7 2 Noroeste 5 Sur 0 992.7 1.2 83
2019-12-07 19:00:00 9.7 4 Sur 5 Sur 0 992.2 0.9 79
2019-12-07 18:00:00 12.4 0 Calma 3 Sudeste 0 991.9 0.6 71
2019-12-07 17:00:00 14.7 2 Sudeste 9 Sudeste 0 991.5 -0.5 61
2019-12-07 16:00:00 15.5 3 Sur 10 Sur 0 991.3 -1.3 59
2019-12-07 15:00:00 15.8 4 Sudoeste 9 Oeste 0 991.3 -2.3 58
2019-12-07 14:00:00 14.7 4 Sur 15 Sudeste 0 992 -1.6 62
2019-12-07 13:00:00 12.7 5 Sudeste 11 Este 0 992.6 -0.6 67
2019-12-07 12:00:00 10.9 3 Sudeste 15 Este 0 993.6 0.7 75
2019-12-07 11:00:00 8.9 7 Este 16 Nordeste 0 993.6 1.1 81
2019-12-07 10:00:00 6.4 7 Este 12 Este 0 993.2 1.2 90
2019-12-07 09:00:00 3.5 4 Sudeste 8 Este 0 992.9 1.2 94
2019-12-07 08:00:00 3 6 Este 8 Este 0 992.5 1.1 94
2019-12-07 07:00:00 3.3 4 Este 10 Este 0 992 0.4 94
2019-12-07 06:00:00 3.6 6 Nordeste 10 Este 0 991.7 0 93
2019-12-07 05:00:00 3.6 7 Este 9 Este 0 991.4 0 93
2019-12-07 04:00:00 3.8 5 Este 8 Este 0 991.6 0 92
2019-12-07 03:00:00 4.2 5 Este 9 Nordeste 0 991.7 -0.1 92
2019-12-07 02:00:00 4.1 6 Nordeste 8 Nordeste 0 991.4 -0.4 91
2019-12-07 01:00:00 5.9 7 Sudeste 10 Sudeste 0 991.6 0.2 90
2019-12-07 00:00:00 5.5 3 Este 10 Sudeste 0 991.8 1.1 88
2019-12-06 23:00:00 6.6 3 Sudeste 7 Nordeste 0 991.8 1.5 87
2019-12-06 22:00:00 7.1 3 Nordeste 6 Nordeste 0 991.4 1.5 84
2019-12-06 21:00:00 8.7 4 Este 10 Este 0 990.7 1.2 79
2019-12-06 20:00:00 9.7 7 Nordeste 11 Este 0 990.3 1.1 76
2019-12-06 19:00:00 11 8 Este 12 Este 0 989.9 0.9 70
2019-12-06 18:00:00 13.1 8 Este 17 Este 0 989.5 0.2 62
2019-12-06 17:00:00 15.5 10 Sudeste 22 Este 0 989.2 -0.6 52
2019-12-06 16:00:00 16.2 10 Sudeste 22 Sudeste 0 989 -1.5 53
2019-12-06 15:00:00 16.3 10 Sudeste 24 Sudeste 0 989.3 -1.9 52
2019-12-06 14:00:00 15.8 12 Este 27 Este 0 989.8 -1.7 52
2019-12-06 13:00:00 15.3 12 Este 23 Este 0 990.5 -1 54
2019-12-06 12:00:00 14 15 Este 26 Sudeste 0 991.2 0.2 60
2019-12-06 11:00:00 12.9 12 Este 22 Sudeste 0 991.5 1.2 63
2019-12-06 10:00:00 10.8 5 Este 12 Nordeste 0 991.5 1.8 74
2019-12-06 09:00:00 8.1 9 Nordeste 14 Nordeste 0 991 1.8 81
2019-12-06 08:00:00 7.2 6 Nordeste 13 Este 0 990.3 1.2 83
2019-12-06 07:00:00 7.3 8 Este 15 Nordeste 0 989.7 0.9 84
2019-12-06 06:00:00 6.4 6 Norte 11 Norte 0 989.2 0.3 86
2019-12-06 05:00:00 7.3 5 Nordeste 18 Este 0 989.1 0.2 82
2019-12-06 04:00:00 8.9 9 Sudeste 17 Sur 0 988.8 0 77
2019-12-06 03:00:00 9.6 6 Sudeste 12 Sudeste 0 988.9 0.1 76
2019-12-06 02:00:00 10.7 7 Este 12 Este 0 988.9 0 73
2019-12-06 01:00:00 11.1 6 Este 13 Sudeste 0 988.8 0.2 72
2019-12-06 00:00:00 10.8 6 Sudeste 10 Sudeste 0 988.8 1.1 72
2019-12-05 23:00:00 10.3 3 Sudeste 8 Sudeste 0 988.9 1.6 76
2019-12-05 22:00:00 10.1 3 Nordeste 7 Noroeste 0 988.6 2.2 76
2019-12-05 21:00:00 10 3 Sudeste 5 Sudeste 0 987.7 1.9 76
2019-12-05 20:00:00 10.8 3 Este 9 Norte 0 987.3 1.7 72
2019-12-05 19:00:00 11.7 4 Sudeste 10 Este 0 986.4 1.3 67
2019-12-05 18:00:00 13.5 8 Este 21 Este 0 985.8 0.8 57
2019-12-05 17:00:00 15.5 9 Este 22 Este 0 985.6 0.3 51
2019-12-05 16:00:00 16.1 14 Este 26 Este 0 985.1 -0.9 47
2019-12-05 15:00:00 15.9 13 Nordeste 28 Nordeste 0 985 -1.4 51
2019-12-05 14:00:00 15.5 10 Este 26 Sudeste 0 985.3 -1 55
2019-12-05 13:00:00 14.2 12 Este 21 Este 0 986 0.5 61
2019-12-05 12:00:00 12.1 6 Nordeste 14 Este 0 986.4 1.9 71
2019-12-05 11:00:00 10.6 7 Nordeste 10 Nordeste 0 986.3 2.3 83
2019-12-05 10:00:00 9 4 Este 15 Este 0 985.5 2.3 89
2019-12-05 09:00:00 6.8 3 Nordeste 9 Nordeste 0 984.5 1.9 94
2019-12-05 08:00:00 5.8 3 Nordeste 8 Nordeste 0 984 1.8 94
2019-12-05 07:00:00 4.8 4 Nordeste 8 Nordeste 0 983.2 1.4 93
2019-12-05 06:00:00 5.2 5 Nordeste 9 Este 0 982.6 1.2 93
2019-12-05 05:00:00 5.7 5 Nordeste 10 Sudeste 0 982.2 1.1 92
2019-12-05 04:00:00 6.8 6 Sudeste 9 Sudeste 0 981.8 1.2 93
2019-12-05 03:00:00 6.5 3 Este 9 Nordeste 0 981.4 0.9 93
2019-12-05 02:00:00 6.3 7 Nordeste 12 Nordeste 0 981.1 1.1 93
2019-12-05 01:00:00 5.7 5 Sudoeste 8 Sudoeste 0 980.6 1.2 92
2019-12-05 00:00:00 5.4 0 Calma 5 Sur 0 980.5 1.2 90
2019-12-04 23:00:00 6.5 2 Nordeste 6 Sudeste 0 980 1 90
2019-12-04 22:00:00 7.8 2 Noroeste 7 Oeste 0 979.4 0.6 89
2019-12-04 21:00:00 9 3 Sudoeste 5 Sudoeste 0 979.3 1.3 87
2019-12-04 20:00:00 9.5 2 Sudoeste 6 Este 0 979 1.1 84
2019-12-04 19:00:00 10 3 Este 8 Nordeste 0 978.8 1.3 82
2019-12-04 18:00:00 10.3 3 Sur 6 Sudoeste 0 978 0.6 80
2019-12-04 17:00:00 11 3 Sur 9 Oeste 0 977.9 0 75
2019-12-04 16:00:00 11.4 2 Sudoeste 8 Oeste 0 977.5 -0.7 71
2019-12-04 15:00:00 11.4 2 Sudoeste 9 Este 0 977.4 -1.7 71
2019-12-04 14:00:00 11 5 Sudeste 13 Este 0 977.9 -1.6 70
2019-12-04 13:00:00 10.9 8 Este 16 Este 0 978.2 -1 69
2019-12-04 12:00:00 10.9 6 Sudeste 16 Este 0 979.1 0.2 66
2019-12-04 11:00:00 11 8 Sudeste 21 Este 0 979.5 0.5 64
2019-12-04 10:00:00 9.5 9 Este 17 Este 0 979.2 0.3 69
2019-12-04 09:00:00 7.6 8 Nordeste 14 Nordeste 0 978.9 -0.2 76
2019-12-04 08:00:00 7.7 9 Este 15 Este 0 979 -0.8 75
2019-12-04 07:00:00 7.9 7 Este 11 Este 0 978.9 -1.3 77
2019-12-04 06:00:00 8.1 4 Sudeste 12 Este 0 979.1 -1.4 78
2019-12-04 05:00:00 8.2 6 Nordeste 13 Este 0.2 979.8 -1.1 81
2019-12-04 04:00:00 9.3 6 Nordeste 12 Este 0 980.2 -1.1 70
2019-12-04 03:00:00 9.6 5 Este 15 Este 0 980.5 -1.5 68
2019-12-04 02:00:00 9.9 6 Este 17 Sudeste 0 980.9 -1 65
2019-12-04 01:00:00 9.7 8 Este 17 Este 0 981.3 -0.6 69
2019-12-04 00:00:00 9.5 3 Sudeste 12 Este 0 982 0.1 75
2019-12-03 23:00:00 9.6 5 Este 9 Este 0 981.9 0.2 73
2019-12-03 22:00:00 9.7 4 Este 10 Este 0 981.9 0.6 73
2019-12-03 21:00:00 9.5 5 Este 11 Este 0 981.9 0.7 73
2019-12-03 20:00:00 9.4 6 Este 15 Sudeste 0 981.7 0.6 71
2019-12-03 19:00:00 9.1 4 Nordeste 13 Este 0 981.3 0.3 68
2019-12-03 18:00:00 10.7 7 Este 24 Sudeste 0 981.2 -0.2 61
2019-12-03 17:00:00 12.4 12 Sudeste 30 Este 0 981.1 -0.9 54
2019-12-03 16:00:00 13.4 16 Sudeste 28 Sudeste 0 981 -1.9 50
2019-12-03 15:00:00 13.6 14 Este 30 Sudeste 0 981.4 -2.5 49
2019-12-03 14:00:00 13.5 15 Sudeste 27 Sudeste 0 982 -2.4 46
2019-12-03 13:00:00 12.3 13 Este 24 Este 0 982.9 -1.4 49
2019-12-03 12:00:00 11.3 9 Este 23 Este 0 983.9 -0.4 55
2019-12-03 11:00:00 9.7 11 Este 22 Este 0 984.4 0.1 61
2019-12-03 10:00:00 7.6 5 Nordeste 11 Este 0 984.3 0.1 73
2019-12-03 09:00:00 3.6 5 Nordeste 8 Nordeste 0 984.3 0.2 89
2019-12-03 08:00:00 2.8 5 Este 9 Este 0 984.3 0 88
2019-12-03 07:00:00 3.7 6 Este 10 Este 0 984.2 -0.3 85
2019-12-03 06:00:00 4.5 6 Este 10 Nordeste 0 984.1 -0.6 81
2019-12-03 05:00:00 6 3 Nordeste 11 Nordeste 0 984.3 -0.5 74
2019-12-03 04:00:00 6.5 5 Este 12 Nordeste 0 984.5 -0.5 73
2019-12-03 03:00:00 5.9 4 Este 19 Este 0 984.7 -0.5 78
2019-12-03 02:00:00 6.4 6 Norte 14 Nordeste 0 984.8 -0.2 75
2019-12-03 01:00:00 8.5 8 Este 19 Este 0 985 0.1 65
2019-12-03 00:00:00 9.9 10 Este 23 Este 0 985.2 0.7 60
2019-12-02 23:00:00 9.6 5 Este 12 Este 0 985 0.9 64
2019-12-02 22:00:00 9.3 7 Este 16 Sudeste 0 984.9 1.6 65
2019-12-02 21:00:00 10.7 9 Este 15 Este 0 984.5 1.4 60
2019-12-02 20:00:00 11.5 4 Sur 30 Este 0 984.1 1.6 62
2019-12-02 19:00:00 12.6 11 Este 21 Este 0 983.3 1.1 54
2019-12-02 18:00:00 13 9 Este 21 Sudeste 0 983.1 1.2 54
2019-12-02 17:00:00 14.1 12 Este 28 Sudeste 0 982.5 0.4 48
2019-12-02 16:00:00 14.9 18 Sudeste 39 Sudeste 0 982.2 -0.6 46
2019-12-02 15:00:00 15.2 18 Este 42 Sudeste 0 981.9 -1.4 47
2019-12-02 14:00:00 14.6 21 Sudeste 41 Sudeste 0 982.1 -1.1 49
2019-12-02 13:00:00 14.1 16 Sudeste 33 Este 0 982.8 0.3 51
2019-12-02 12:00:00 13.5 17 Sudeste 44 Sudeste 0.2 983.3 1.5 55
2019-12-02 11:00:00 12.9 8 Este 22 Sudeste 0 983.2 2.1 57
2019-12-02 10:00:00 10 0 Calma 6 Sudeste 0 982.5 2 78
2019-12-02 09:00:00 7.7 4 Nordeste 27 Este 0 981.8 1.6 80
2019-12-02 08:00:00 8.9 13 Este 33 Este 0 981.1 0.9 73
2019-12-02 07:00:00 9.4 15 Este 32 Este 0 980.5 0.5 71
2019-12-02 06:00:00 9.4 14 Este 27 Este 0 980.2 0.2 75
2019-12-02 05:00:00 8.9 12 Este 21 Este 0 980.2 0.4 80
2019-12-02 04:00:00 8.5 5 Este 36 Este 0 980 0.3 87
2019-12-02 03:00:00 8.6 14 Este 27 Este 0.4 980 0.3 87
2019-12-02 02:00:00 8 5 Nordeste 12 Nordeste 0.6 979.8 0.4 92
2019-12-02 01:00:00 8.1 3 Nordeste 10 Nordeste 0.6 979.7 0.7 93
2019-12-02 00:00:00 8 6 Nordeste 10 Nordeste 0.2 979.7 0.8 93
2019-12-01 23:00:00 7 5 Sur 8 Nordeste 0 979.4 0.5 93
2019-12-01 22:00:00 7.4 6 Nordeste 9 Nordeste 0 979 0.6 93
2019-12-01 21:00:00 7.7 6 Nordeste 11 Este 0 978.9 0.9 92
2019-12-01 20:00:00 7.8 7 Nordeste 10 Nordeste 0 978.9 1.2 92
2019-12-01 19:00:00 8.2 5 Nordeste 8 Nordeste 0 978.4 0.5 92
2019-12-01 18:00:00 9.2 4 Nordeste 17 Este 0 978 0.3 91
2019-12-01 17:00:00 10.1 7 Este 15 Este 0 977.7 -0.1 88
2019-12-01 16:00:00 9.8 8 Este 21 Este 0 977.9 -0.1 89
2019-12-01 15:00:00 10.1 10 Este 19 Sudeste 0 977.7 -1.1 89
2019-12-01 14:00:00 10.4 11 Nordeste 30 Nordeste 3 977.8 -1.3 91
2019-12-01 13:00:00 11.5 11 Nordeste 28 Oeste 0 978 -1.2 84
2019-12-01 12:00:00 12.3 12 Sudoeste 22 Sudoeste 0.2 978.8 -0.3 87
2019-12-01 11:00:00 11.2 8 Sudoeste 20 Sur 0.4 979.1 -0.3 90
2019-12-01 10:00:00 10.4 7 Sudoeste 13 Sudoeste 1.2 979.2 -0.7 93
2019-12-01 09:00:00 9.7 5 Nordeste 8 Nordeste 1.2 979.1 -1.2 93
2019-12-01 08:00:00 9.5 4 Sudeste 10 Este 0.2 979.4 -1.6 93
2019-12-01 07:00:00 9.3 6 Este 18 Este 0.2 979.9 -1.7 93
2019-12-01 06:00:00 9.2 0 Calma 3 Sur 0.2 980.3 -2.3 93
2019-12-01 05:00:00 9 3 Sudoeste 9 Sur 0 981 -2 93
2019-12-01 04:00:00 8.5 0 Calma 13 Oeste 0 981.6 -1.8 93
2019-12-01 03:00:00 8.3 8 Oeste 15 Oeste 0 982.6 -0.8 93
2019-12-01 02:00:00 8.9 9 Oeste 21 Oeste 0 983 -0.6 92
2019-12-01 01:00:00 9.8 12 Oeste 34 Oeste 0 983.4 0.1 91
2019-12-01 00:00:00 10.4 19 Oeste 33 Sudoeste 0 983.4 -0.1 91
2019-11-30 23:00:00 10.7 19 Oeste 39 Oeste 0 983.6 -0.1 90
2019-11-30 22:00:00 11.4 24 Oeste 43 Oeste 0 983.3 -0.3 90
2019-11-30 21:00:00 11.7 23 Sudoeste 40 Sudoeste 0.2 983.5 -0.3 90
2019-11-30 20:00:00 12.4 20 Oeste 39 Oeste 1.2 983.7 -0.3 87
2019-11-30 19:00:00 13.5 15 Oeste 37 Sudoeste 1.6 983.6 -0.9 89
2019-11-30 18:00:00 14.2 14 Sudoeste 29 Oeste 0.6 983.8 -1.3 89
2019-11-30 17:00:00 14.6 14 Sudoeste 37 Sudoeste 0.2 984 -2 85
2019-11-30 16:00:00 15.3 21 Oeste 39 Oeste 0 984.5 -2.5 80
2019-11-30 15:00:00 15.5 17 Oeste 33 Oeste 0 985.1 -3.2 77
2019-11-30 14:00:00 14.2 6 Norte 22 Oeste 0.2 986 -2.9 89
2019-11-30 13:00:00 15.7 10 Oeste 21 Oeste 0 987 -1.6 72
2019-11-30 12:00:00 15 0 Calma 12 Noroeste 0 988.3 -0.2 81
2019-11-30 11:00:00 14.5 6 Norte 12 Norte 0 988.9 0.5 84
2019-11-30 10:00:00 14.5 2 Oeste 15 Oeste 0 988.6 0.2 84
2019-11-30 09:00:00 14 11 Oeste 21 Sudoeste 0 988.5 0.1 83
2019-11-30 08:00:00 13.9 11 Oeste 23 Oeste 0 988.4 -0.3 86
2019-11-30 07:00:00 13.8 9 Oeste 17 Sudoeste 0 988.4 -0.7 88
2019-11-30 06:00:00 14 12 Sudoeste 21 Sudoeste 0 988.4 -0.8 89
2019-11-30 05:00:00 13.9 12 Sudoeste 20 Oeste 0 988.7 -0.5 90
2019-11-30 04:00:00 13.5 10 Sudoeste 16 Sudoeste 0 989.1 -0.5 93
2019-11-30 03:00:00 13.4 0 Calma 5 Noroeste 0 989.2 -0.6 93
2019-11-30 02:00:00 13.4 3 Noroeste 10 Oeste 0 989.2 -0.5 93
2019-11-30 01:00:00 13.9 8 Oeste 13 Sudoeste 0.4 989.6 -0.1 92
2019-11-30 00:00:00 14.2 8 Oeste 14 Oeste 0.2 989.8 0.3 91
2019-11-29 23:00:00 14.3 4 Oeste 8 Oeste 0 989.7 0.5 91
2019-11-29 22:00:00 14.5 4 Oeste 7 Noroeste 0 989.7 0.5 91
2019-11-29 21:00:00 14.5 3 Oeste 9 Noroeste 0 989.5 0.5 91
2019-11-29 20:00:00 14.6 0 Calma 5 Noroeste 0 989.2 0.4 90
2019-11-29 19:00:00 14.7 3 Norte 10 Sudoeste 0 989.2 0.6 90
2019-11-29 18:00:00 15.6 8 Sudoeste 13 Sudoeste 0 989 0.1 85
2019-11-29 17:00:00 16.1 2 Oeste 8 Oeste 0 988.8 -0.4 86
2019-11-29 16:00:00 15.9 3 Oeste 13 Oeste 0 988.6 -1 87
2019-11-29 15:00:00 15.4 9 Oeste 16 Oeste 0 988.9 -1 90
2019-11-29 14:00:00 15.8 10 Oeste 27 Oeste 0 989.2 -0.8 86
2019-11-29 13:00:00 15.8 13 Oeste 23 Oeste 0 989.6 0.2 84
2019-11-29 12:00:00 15.1 5 Oeste 12 Oeste 0 989.9 1.2 89
2019-11-29 11:00:00 14.1 2 Noroeste 6 Norte 0.4 990 1.8 92
2019-11-29 10:00:00 13.8 4 Noroeste 8 Oeste 0 989.4 1.6 92
2019-11-29 09:00:00 13.5 3 Nordeste 14 Oeste 0.2 988.7 1.3 92
2019-11-29 08:00:00 13.8 5 Oeste 19 Oeste 0.4 988.2 1.1 89
2019-11-29 07:00:00 13.8 10 Oeste 23 Oeste 0 987.8 0.9 89
2019-11-29 06:00:00 13.6 5 Oeste 13 Noroeste 0.2 987.4 0.8 91
2019-11-29 05:00:00 13.9 2 Noroeste 21 Oeste 0 987.1 0.6 89
2019-11-29 04:00:00 14.3 11 Oeste 25 Sudoeste 0 986.9 0.2 85
2019-11-29 03:00:00 14.3 13 Oeste 23 Sudoeste 0 986.6 0.1 85
2019-11-29 02:00:00 13.9 5 Oeste 15 Sudoeste 0 986.5 0.1 88
2019-11-29 01:00:00 14 10 Sudoeste 23 Oeste 0 986.7 0.6 87
2019-11-29 00:00:00 14.6 8 Sudoeste 21 Oeste 0 986.5 0.6 81
2019-11-28 23:00:00 14.5 8 Oeste 25 Oeste 0 986.4 0.6 83
2019-11-28 22:00:00 14.1 4 Noroeste 16 Oeste 0 986.1 0.7 84
2019-11-28 21:00:00 14.2 8 Oeste 21 Oeste 0 985.9 1.1 83
2019-11-28 20:00:00 13.2 4 Oeste 11 Sudoeste 0 985.8 0.7 89
2019-11-28 19:00:00 13.3 3 Oeste 8 Noroeste 0 985.4 0.5 89
2019-11-28 18:00:00 13.7 4 Sudoeste 8 Oeste 0 984.8 -0.6 87
2019-11-28 17:00:00 14.3 3 Noroeste 18 Oeste 0 985.1 -0.8 84
2019-11-28 16:00:00 14.1 8 Oeste 21 Sudoeste 0.2 984.9 -1.2 88
2019-11-28 15:00:00 13.5 3 Noroeste 14 Noroeste 0 985.4 -1.7 90
2019-11-28 14:00:00 14 7 Noroeste 18 Oeste 0 985.9 -1.1 86
2019-11-28 13:00:00 13.7 6 Sudoeste 17 Noroeste 0 986.1 -0.7 89
2019-11-28 12:00:00 13.1 6 Oeste 13 Oeste 0.2 987.1 0.8 90
2019-11-28 11:00:00 12.4 4 Noroeste 14 Oeste 0 987 1.2 87
2019-11-28 10:00:00 11.8 5 Noroeste 17 Noroeste 0 986.8 1.4 88
2019-11-28 09:00:00 11.4 4 Noroeste 13 Oeste 0 986.3 1.3 88
2019-11-28 08:00:00 11.4 5 Oeste 24 Oeste 0 985.8 1.1 86
2019-11-28 07:00:00 11.4 13 Oeste 22 Oeste 0 985.4 0.6 86
2019-11-28 06:00:00 11.3 9 Oeste 18 Oeste 0 985 0.4 85
2019-11-28 05:00:00 10.9 8 Oeste 16 Oeste 0 984.7 0.1 88
2019-11-28 04:00:00 10.7 3 Oeste 6 Noroeste 0 984.8 0.1 89
2019-11-28 03:00:00 10.6 5 Sudoeste 16 Sudoeste 0 984.6 0 87
2019-11-28 02:00:00 9.7 7 Oeste 13 Sudoeste 0 984.6 0 89
2019-11-28 01:00:00 9.7 8 Sudoeste 12 Oeste 0 984.7 0.9 87
2019-11-28 00:00:00 11.1 5 Oeste 14 Oeste 0 984.6 1.3 84
2019-11-27 23:00:00 10.6 3 Noroeste 8 Oeste 0 984.6 1.6 85
2019-11-27 22:00:00 12.3 3 Oeste 16 Oeste 0 983.8 1.1 80
2019-11-27 21:00:00 12.9 10 Oeste 20 Oeste 0 983.3 1 77
2019-11-27 20:00:00 12.3 10 Oeste 18 Oeste 0 983 0.9 79
2019-11-27 19:00:00 12.5 6 Sudoeste 12 Oeste 0 982.7 0.6 84
2019-11-27 18:00:00 13.1 5 Oeste 14 Noroeste 0 982.3 0.6 81
2019-11-27 17:00:00 13.7 6 Oeste 21 Oeste 0 982.1 -0.3 79
2019-11-27 16:00:00 13.8 9 Oeste 28 Noroeste 0.2 982.1 -0.4 81
2019-11-27 15:00:00 14.4 8 Oeste 18 Noroeste 0.2 981.7 -1.4 77
2019-11-27 14:00:00 14.2 8 Oeste 33 Oeste 0 982.4 -1.1 77
2019-11-27 06:00:00 10.8 15 Oeste 28 Oeste 0 979.8 1 91
2019-11-27 05:00:00 11.3 13 Oeste 21 Oeste 0 979.6 0.8 91
2019-11-27 04:00:00 12.1 12 Oeste 35 Oeste 0 979.4 0 91
2019-11-27 03:00:00 12.4 15 Oeste 32 Oeste 0 978.8 -0.5 92
2019-11-27 02:00:00 12.9 16 Oeste 39 Noroeste 0 978.8 -0.1 91
2019-11-27 01:00:00 13.3 18 Oeste 48 Oeste 0.4 979.4 0.5 91
2019-11-27 00:00:00 13.8 22 Oeste 40 Sudoeste 0.6 979.3 0.5 90
2019-11-26 23:00:00 14.3 10 Oeste 22 Oeste 0 978.9 0.1 87
2019-11-26 22:00:00 14.3 10 Oeste 26 Oeste 0 978.9 0.3 88
2019-11-26 21:00:00 14.6 17 Oeste 31 Oeste 0 978.8 0.5 87
2019-11-26 20:00:00 14.3 15 Oeste 32 Oeste 0 978.8 0.1 91
2019-11-26 19:00:00 15 17 Oeste 35 Oeste 0.2 978.6 -0.9 90
2019-11-26 18:00:00 15 14 Oeste 26 Oeste 0.4 978.3 -1.6 91
2019-11-26 17:00:00 14.2 2 Oeste 6 Sudeste 0.4 978.7 -1.7 93
2019-11-26 16:00:00 14 4 Este 7 Este 3.4 979.5 -2.1 93
2019-11-26 15:00:00 13.9 5 Este 16 Norte 4.6 979.9 -2.9 93
2019-11-26 14:00:00 14.1 7 Este 11 Este 1.6 980.4 -2.8 93
2019-11-26 13:00:00 13.8 4 Este 11 Este 0.2 981.6 -1.9 93
2019-11-26 12:00:00 13.5 5 Este 8 Sudeste 0.4 982.8 -0.7 93
2019-11-26 11:00:00 13.1 5 Sudeste 9 Este 0.4 983.2 -0.2 93
2019-11-26 10:00:00 12.9 4 Este 8 Este 0.4 983.5 0.4 93
2019-11-26 09:00:00 12.5 3 Nordeste 8 Nordeste 0.6 983.5 0.1 93
2019-11-26 08:00:00 12.4 4 Nordeste 9 Nordeste 0.8 983.4 -0.3 93
2019-11-26 07:00:00 12.4 4 Norte 10 Norte 0.6 983.1 -1 92
2019-11-26 06:00:00 12.7 3 Noroeste 12 Oeste 0 983.4 -0.8 89
2019-11-26 05:00:00 12.8 6 Oeste 15 Oeste 0 983.7 -0.7 89
2019-11-26 04:00:00 12.1 5 Oeste 10 Oeste 0 984.1 -0.3 92
2019-11-26 03:00:00 11.6 5 Oeste 15 Oeste 0 984.2 -0.6 90
2019-11-26 02:00:00 12.9 8 Oeste 17 Oeste 0 984.4 -0.3 88
2019-11-26 01:00:00 12.9 8 Oeste 17 Oeste 0 984.4 -0.3 88
2019-11-26 00:00:00 12.4 8 Oeste 12 Oeste 0 984.8 0.2 91
2019-11-25 23:00:00 12.6 7 Oeste 12 Oeste 0 984.7 0.3 90
2019-11-25 22:00:00 12.9 5 Oeste 15 Oeste 0 984.7 0.7 89
2019-11-25 21:00:00 13.6 9 Sudoeste 18 Sudoeste 0 984.6 0.9 89
2019-11-25 20:00:00 14.3 8 Oeste 17 Oeste 0 984.4 0.9 87
2019-11-25 19:00:00 14.5 9 Oeste 22 Oeste 0 984 1 86
2019-11-25 18:00:00 15 14 Oeste 32 Oeste 0 983.7 0.6 83
2019-11-25 17:00:00 15.7 17 Oeste 33 Oeste 0 983.5 0.3 80
2019-11-25 16:00:00 16.8 19 Oeste 33 Oeste 0 983 -0.5 76
2019-11-25 15:00:00 17 13 Oeste 36 Oeste 0 983.1 -0.8 72
2019-11-25 14:00:00 16.7 15 Oeste 33 Oeste 0 983.2 -0.5 74
2019-11-25 13:00:00 15.5 13 Oeste 31 Oeste 0 983.5 0.1 82
2019-11-25 12:00:00 15.8 15 Oeste 30 Oeste 0 983.9 1.1 86
2019-11-25 11:00:00 14 12 Oeste 25 Oeste 0.2 983.7 0.9 92
2019-11-25 10:00:00 13.9 7 Oeste 23 Oeste 0 983.4 0.8 93
2019-11-25 09:00:00 12.7 12 Oeste 19 Oeste 0 982.8 0.4 94
2019-11-25 08:00:00 11.9 5 Noroeste 9 Oeste 0 982.8 0.3 93
2019-11-25 07:00:00 11.7 3 Oeste 10 Sudoeste 0.2 982.6 0.2 93
2019-11-25 06:00:00 11.5 5 Sudoeste 7 Sudoeste 0.2 982.4 0 93
2019-11-25 05:00:00 11.4 3 Sudoeste 4 Sudoeste 1.2 982.5 -0.5 93
2019-11-25 04:00:00 11.3 0 Calma 9 Nordeste 1.6 982.4 -1.1 93
2019-11-25 03:00:00 11.1 5 Nordeste 8 Nordeste 2 982.4 -1.7 93
2019-11-25 02:00:00 11.1 4 Nordeste 7 Nordeste 1.4 983 -1.3 93
2019-11-25 01:00:00 11.1 0 Calma 5 Sudoeste 1 983.5 -0.7 92
2019-11-25 00:00:00 11.1 0 Calma 10 Sudoeste 0.8 984.1 0.1 92
2019-11-24 23:00:00 11 5 Noroeste 12 Norte 0.4 984.3 -0.1 91
2019-11-24 22:00:00 11.3 3 Noroeste 10 Oeste 0 984.2 -0.3 83
2019-11-24 21:00:00 11.5 3 Sudoeste 6 Oeste 0 984 0.1 79
2019-11-24 20:00:00 11.7 4 Oeste 9 Oeste 0 984.4 0.2 76
2019-11-24 19:00:00 11.9 6 Oeste 14 Oeste 0 984.5 0.6 74
2019-11-24 18:00:00 12.4 6 Oeste 24 Noroeste 0 983.9 0.2 71
2019-11-24 17:00:00 13 12 Oeste 32 Oeste 0 984.2 0.3 68
2019-11-24 16:00:00 13.3 15 Oeste 41 Oeste 0 983.9 -0.9 64
2019-11-24 15:00:00 14.8 23 Oeste 42 Oeste 0 983.7 -1.8 53
2019-11-24 14:00:00 14.6 12 Noroeste 35 Oeste 0 983.9 -1.6 50
2019-11-24 13:00:00 12.9 5 Noroeste 14 Norte 0 984.8 0.2 62
2019-11-24 12:00:00 10.1 5 Norte 9 Noroeste 0 985.5 1.3 68
2019-11-24 11:00:00 9 2 Noroeste 9 Noroeste 0 985.5 2 73
2019-11-24 10:00:00 7.2 2 Sudeste 7 Nordeste 0 984.6 1.6 78
2019-11-24 09:00:00 4.5 5 Norte 12 Norte 0 984.2 1.8 86
2019-11-24 08:00:00 5.2 4 Este 11 Este 0 983.5 1.6 85
2019-11-24 07:00:00 6.5 3 Sudeste 15 Noroeste 0 983 1.3 78
2019-11-24 06:00:00 6.7 4 Oeste 12 Sudeste 0 982.4 1 78
2019-11-24 05:00:00 7.2 5 Este 29 Oeste 0 981.9 0.2 77
2019-11-24 04:00:00 8.2 13 Oeste 27 Oeste 0 981.7 0.3 74
2019-11-24 03:00:00 8.2 10 Oeste 31 Oeste 0 981.4 0.1 75
2019-11-24 02:00:00 8.2 13 Oeste 33 Oeste 0 981.7 0.7 77
2019-11-24 01:00:00 9 17 Oeste 35 Oeste 0 981.4 1 72
2019-11-24 00:00:00 9.4 13 Oeste 39 Oeste 0 981.3 1.5 69
2019-11-23 23:00:00 9.5 17 Oeste 34 Oeste 0 981 1.4 68
2019-11-23 22:00:00 10.8 17 Oeste 47 Oeste 0 980.4 1.5 61
2019-11-23 21:00:00 11 24 Oeste 44 Oeste 0 979.8 1.5 60
2019-11-23 20:00:00 10.7 21 Sudoeste 33 Sudoeste 0 979.6 2.6 61
2019-11-23 19:00:00 12.7 14 Oeste 36 Noroeste 0 978.9 2.5 49
2019-11-23 18:00:00 13.2 17 Oeste 42 Sudoeste 0 978.3 2.7 51
2019-11-23 17:00:00 14.6 14 Oeste 36 Oeste 0 977 1.9 44
2019-11-23 16:00:00 15.3 16 Oeste 44 Noroeste 0 976.4 1.9 43
2019-11-23 15:00:00 15.3 19 Noroeste 48 Noroeste 0 975.6 1.3 44
2019-11-23 14:00:00 15.3 16 Noroeste 48 Oeste 0 975.1 1.7 43
2019-11-23 13:00:00 14.8 21 Oeste 51 Oeste 0 974.5 2.4 44
2019-11-23 12:00:00 13.9 25 Oeste 63 Oeste 0 974.3 3.7 46
2019-11-23 11:00:00 13.2 21 Oeste 50 Oeste 0 973.4 3.6 46
2019-11-23 10:00:00 10.9 23 Oeste 65 Oeste 0 972.1 4.6 61
2019-11-23 09:00:00 9.4 31 Oeste 57 Oeste 0 970.6 2.9 65
2019-11-23 08:00:00 9.5 26 Oeste 63 Oeste 0 969.8 2.9 62
2019-11-23 07:00:00 9.2 24 Oeste 61 Oeste 0 967.5 0.7 65
2019-11-23 06:00:00 9.4 27 Oeste 58 Oeste 0 967.7 1.6 68
2019-11-23 05:00:00 9.4 22 Oeste 46 Oeste 0 966.9 1.6 72
2019-11-23 04:00:00 9.7 18 Sudoeste 45 Oeste 0 966.8 2.1 75
2019-11-23 03:00:00 9.4 20 Oeste 41 Oeste 0 966.1 2.2 78
2019-11-23 02:00:00 9.9 20 Oeste 44 Oeste 0 965.3 1.3 81
2019-11-23 01:00:00 11.1 23 Oeste 51 Oeste 0.2 964.7 1.1 74
2019-11-23 00:00:00 11.1 20 Oeste 43 Oeste 0.2 963.9 0.5 86
2019-11-22 23:00:00 12 11 Oeste 54 Oeste 0 964 0.9 80
2019-11-22 22:00:00 12.2 23 Oeste 41 Oeste 0 963.6 1.1 75
2019-11-22 21:00:00 12.3 27 Oeste 46 Oeste 0 963.4 1.7 75
2019-11-22 20:00:00 12.2 19 Oeste 34 Oeste 0 963.1 2 76
2019-11-22 19:00:00 12.8 15 Oeste 66 Oeste 0 962.5 2.3 73
2019-11-22 18:00:00 13.7 7 Oeste 32 Oeste 0 961.7 1 73
2019-11-22 17:00:00 15.4 19 Oeste 39 Oeste 0 961.1 -0.8 68
2019-11-22 16:00:00 15.4 14 Sudoeste 31 Oeste 0 960.2 -2.9 86
2019-11-22 15:00:00 13 3 Este 18 Este 0 960.7 -3.6 93
2019-11-22 14:00:00 11.7 5 Este 13 Nordeste 0.8 961.9 -4.2 94
2019-11-22 13:00:00 11 6 Nordeste 22 Nordeste 5.2 963.1 -3.9 94
2019-11-22 12:00:00 10.5 12 Nordeste 21 Nordeste 6.4 964.3 -4 94
2019-11-22 11:00:00 10.3 7 Este 23 Nordeste 6.2 966.1 -3.3 94
2019-11-22 10:00:00 9.9 10 Nordeste 21 Nordeste 1.4 967 -3.5 94
2019-11-22 09:00:00 9.5 9 Este 16 Este 2.2 968.3 -2.9 94
2019-11-22 08:00:00 9.3 6 Este 14 Este 2.2 969.4 -2.8 94
2019-11-22 07:00:00 9.3 6 Sudeste 12 Sudeste 2.4 970.5 -2.5 94
2019-11-22 06:00:00 9.2 6 Este 11 Este 1 971.2 -2.5 93
2019-11-22 05:00:00 9.1 4 Este 11 Este 0.4 972.2 -1.9 93
2019-11-22 04:00:00 9.1 4 Sudeste 6 Nordeste 0 973 -1.5 93
2019-11-22 03:00:00 9.1 4 Nordeste 8 Nordeste 0.4 973.7 -1.3 93
2019-11-22 02:00:00 9 2 Nordeste 12 Este 0.4 974.1 -1.4 93
2019-11-22 01:00:00 9 5 Este 14 Noroeste 0.6 974.5 -1.2 93
2019-11-22 00:00:00 9.1 4 Nordeste 11 Este 0 975 -1 93
2019-11-21 23:00:00 9.3 6 Nordeste 9 Sudeste 0 975.5 -0.3 93
2019-11-21 22:00:00 9.4 6 Sudeste 10 Este 0 975.7 0 93
2019-11-21 21:00:00 9 4 Nordeste 7 Sudeste 0 976 0.5 93
2019-11-21 20:00:00 8.5 4 Sudeste 8 Sudeste 0 975.8 0.4 92
2019-11-21 19:00:00 9.8 4 Nordeste 5 Nordeste 0 975.7 0.3 89
2019-11-21 18:00:00 11 3 Norte 16 Este 0 975.5 -0.3 88
2019-11-21 17:00:00 12.6 0 Calma 10 Oeste 0 975.4 -0.7 83
2019-11-21 16:00:00 11.9 5 Sudoeste 9 Oeste 0 975.4 -1.3 86
2019-11-21 15:00:00 11.5 0 Calma 10 Norte 0 975.8 -1.4 87
2019-11-21 14:00:00 10 0 Calma 8 Norte 0.6 976.1 -1.1 91
2019-11-21 13:00:00 9.4 4 Nordeste 11 Sudeste 0 976.7 -0.2 91
2019-11-21 12:00:00 9.1 6 Este 11 Nordeste 0.6 977.2 0.3 92
2019-11-21 11:00:00 8.4 8 Este 12 Este 0.2 977.2 0.7 92
2019-11-21 10:00:00 8 5 Este 14 Nordeste 0.4 976.9 0.7 93
2019-11-21 09:00:00 7.6 4 Nordeste 13 Nordeste 0.2 976.9 0.5 93
2019-11-21 08:00:00 -- -- -- -- -- -- -- -- --
2019-11-21 07:00:00 -- -- -- -- -- -- -- -- --
2019-11-21 06:00:00 -- -- -- -- -- -- -- -- --
2019-11-21 05:00:00 -- -- -- -- -- -- -- -- --
2019-11-21 04:00:00 -- -- -- -- -- -- -- -- --
2019-11-21 03:00:00 -- -- -- -- -- -- -- -- --
2019-11-21 02:00:00 -- -- -- -- -- -- -- -- --
2019-11-21 01:00:00 -- -- -- -- -- -- -- -- --
2019-11-21 00:00:00 -- -- -- -- -- -- -- -- --
2019-11-20 23:00:00 -- -- -- -- -- -- -- -- --
2019-11-20 22:00:00 -- -- -- -- -- -- -- -- --
2019-11-20 21:00:00 -- -- -- -- -- -- -- -- --
2019-11-20 20:00:00 -- -- -- -- -- -- -- -- --
2019-11-20 19:00:00 7.6 6 Nordeste 12 Este 0.2 977.3 0.4 92
2019-11-20 18:00:00 7.7 5 Nordeste 15 Este 0.6 977.1 -0.2 91
2019-11-20 17:00:00 7.8 6 Este 16 Este 1.8 977.1 -1 89
2019-11-20 16:00:00 8.4 9 Este 17 Este 0 976.9 -1.9 87
2019-11-20 15:00:00 8.4 8 Este 16 Nordeste 0.8 977.3 -2.2 90
2019-11-20 14:00:00 7.9 4 Este 12 Nordeste 0.4 978.1 -1.8 91
2019-11-20 13:00:00 7.7 6 Este 13 Nordeste 1.2 978.8 -1.3 91
2019-11-20 12:00:00 7.3 6 Nordeste 12 Nordeste 1.2 979.5 -0.4 91
2019-11-20 11:00:00 7 8 Este 16 Este 0.8 979.9 0 90
2019-11-20 10:00:00 6.6 5 Nordeste 10 Nordeste 1.6 980.1 0.3 90
2019-11-20 09:00:00 6.5 5 Nordeste 18 Este 0.6 979.9 -0.1 89
2019-11-20 08:00:00 6.8 2 Sur 12 Este 0 979.9 -0.2 83
2019-11-20 07:00:00 6.7 5 Este 12 Este 0 979.8 -1.1 84
2019-11-20 06:00:00 6.6 6 Este 12 Este 0 980 -1.4 84
2019-11-20 05:00:00 6.5 5 Este 11 Este 0 980.1 -1.5 86
2019-11-20 04:00:00 6.5 5 Este 10 Este 0 980.9 -1.4 86
2019-11-20 03:00:00 6.3 4 Este 8 Sudeste 0 981.4 -1.1 86
2019-11-20 02:00:00 6.3 5 Este 18 Este 0 981.6 -1.6 87
2019-11-20 01:00:00 6.8 0 Calma 7 Este 0 982.3 -1.3 85
2019-11-20 00:00:00 6.7 3 Este 6 Este 0 982.5 -0.9 84
2019-11-19 23:00:00 7.3 4 Este 8 Este 0 983.2 -0.4 83
2019-11-19 22:00:00 7.4 4 Nordeste 6 Nordeste 0 983.6 0 84
2019-11-19 21:00:00 7.6 3 Sur 4 Sur 0 983.4 -0.1 81
2019-11-19 20:00:00 7.8 4 Sudoeste 5 Sudoeste 0 983.6 0.1 80
2019-11-19 19:00:00 8 3 Sur 4 Sur 0 983.6 -0.2 77
2019-11-19 18:00:00 9.2 0 Calma 6 Noroeste 0 983.5 -0.8 70
2019-11-19 17:00:00 10.5 4 Noroeste 8 Noroeste 0 983.5 -1.6 64
2019-11-19 16:00:00 11.3 4 Oeste 9 Oeste 0 983.8 -2 60
2019-11-19 15:00:00 11.5 3 Oeste 8 Norte 0 984.3 -2.5 58
2019-11-19 14:00:00 10.7 2 Oeste 8 Noroeste 0 985.1 -2.2 64
2019-11-19 13:00:00 9.4 3 Noroeste 8 Noroeste 0 985.8 -1.6 69
2019-11-19 12:00:00 7.9 0 Calma 7 Sudoeste 0 986.8 0 76
2019-11-19 11:00:00 5.4 3 Este 8 Nordeste 0 987.3 0.5 85
2019-11-19 10:00:00 2.5 3 Nordeste 11 Sudeste 0 987.4 1.1 91
2019-11-19 09:00:00 0.7 5 Este 9 Este 0 986.8 0.6 93
2019-11-19 08:00:00 0 2 Sudeste 6 Nordeste 0 986.8 0.7 94
2019-11-19 07:00:00 -0.4 3 Este 6 Nordeste 0 986.3 0.2 94
2019-11-19 06:00:00 -0.7 3 Oeste 5 Oeste 0 986.2 -0.1 93
2019-11-19 05:00:00 -0.3 3 Sudeste 9 Oeste 0 986.1 0 93
2019-11-19 04:00:00 0.1 4 Sudeste 7 Sur 0 986.1 -0.2 93
2019-11-19 03:00:00 0 3 Oeste 21 Este 0 986.3 0 92
2019-11-19 02:00:00 0.6 3 Sudoeste 6 Este 0 986.1 -0.6 92
2019-11-19 01:00:00 1.3 4 Nordeste 9 Oeste 0 986.3 0.1 91
2019-11-19 00:00:00 2.7 4 Sudeste 8 Oeste 0 986.3 0.6 89
2019-11-18 23:00:00 3.1 5 Oeste 9 Sudoeste 0 986.7 1.4 86
2019-11-18 22:00:00 5.3 7 Nordeste 16 Sudeste 0 986.2 1.5 80
2019-11-18 21:00:00 7.3 7 Sur 13 Este 0 985.7 1.5 76
2019-11-18 20:00:00 6.1 2 Este 11 Sudoeste 0 985.3 1.6 76
2019-11-18 19:00:00 8.1 5 Este 7 Sudeste 0 984.7 1.1 66
2019-11-18 18:00:00 12.4 0 Calma 8 Sudoeste 0 984.2 0.6 52
2019-11-18 17:00:00 15.8 5 Sur 16 Sudoeste 0 983.7 0.1 38
2019-11-18 16:00:00 16.4 5 Sudoeste 17 Sur 0 983.6 -0.5 38
2019-11-18 15:00:00 15.6 9 Sudoeste 23 Sur 0 983.6 -0.7 42
2019-11-18 14:00:00 14.9 10 Sudoeste 21 Oeste 0 983.6 -0.6 43
2019-11-18 13:00:00 14.1 9 Sudoeste 18 Sudoeste 0 984.1 0.3 47
2019-11-18 12:00:00 12.1 10 Sudoeste 16 Sudoeste 0 984.3 1 62
2019-11-18 11:00:00 9.9 5 Oeste 15 Oeste 0 984.2 1.6 74
2019-11-18 10:00:00 7.7 3 Oeste 10 Sudeste 0 983.8 1.8 88
2019-11-18 09:00:00 2.9 6 Sudeste 10 Sudeste 0.2 983.3 2 94
2019-11-18 08:00:00 0.9 2 Este 5 Sur 0 982.6 2 94
2019-11-18 07:00:00 1.9 0 Calma 15 Norte 0 982 2.1 94
2019-11-18 06:00:00 1.9 3 Nordeste 11 Norte 0 981.3 1.9 93
2019-11-18 05:00:00 2.4 4 Sudeste 12 Sur 0 980.6 1.5 92
2019-11-18 04:00:00 3 9 Sur 12 Sur 0 979.9 1.1 93
2019-11-18 03:00:00 2.8 3 Oeste 10 Nordeste 0 979.4 0.8 93
2019-11-18 02:00:00 4.1 4 Norte 16 Nordeste 0 979.1 0.5 92
2019-11-18 01:00:00 6.5 7 Sudoeste 17 Sudoeste 0 978.8 0.6 89
2019-11-18 00:00:00 6.9 12 Sudoeste 18 Sudoeste 0 978.6 -0.1 91
2019-11-17 23:00:00 7.5 8 Sudoeste 34 Sudoeste 0 978.6 0 90
2019-11-17 22:00:00 8.4 21 Oeste 35 Oeste 0 978.2 -0.9 91
2019-11-17 21:00:00 9.1 15 Oeste 37 Oeste 0 978.7 -1.1 90
2019-11-17 20:00:00 9.9 21 Oeste 41 Oeste 0 978.6 -1.8 90
2019-11-17 19:00:00 9 10 Oeste 22 Oeste 0.4 979.1 -1.8 92
2019-11-17 18:00:00 9 10 Oeste 22 Oeste 1.8 979.8 -1.8 92
2019-11-17 17:00:00 9.2 11 Oeste 31 Oeste 1.2 980.4 -2 91
2019-11-17 16:00:00 9.9 13 Oeste 32 Oeste 0 980.9 -2.3 90
2019-11-17 15:00:00 9.6 18 Oeste 37 Oeste 0.2 981.6 -2.6 89
2019-11-17 14:00:00 9.4 16 Oeste 30 Oeste 0 982.4 -2.3 87
2019-11-17 13:00:00 8.8 15 Oeste 28 Oeste 0 983.2 -1.5 87
2019-11-17 12:00:00 9.1 12 Oeste 26 Oeste 0 984.2 -0.2 84
2019-11-17 11:00:00 7.8 10 Oeste 20 Oeste 0 984.7 0.4 91
2019-11-17 10:00:00 7.2 8 Oeste 21 Oeste 0 984.7 0.2 89
2019-11-17 09:00:00 6.9 6 Oeste 23 Oeste 0 984.4 -0.1 88
2019-11-17 08:00:00 6.7 14 Oeste 23 Oeste 0 984.3 -0.2 83
2019-11-17 07:00:00 7.6 14 Oeste 36 Oeste 0 984.5 -0.1 71
2019-11-17 06:00:00 5.9 3 Noroeste 8 Oeste 0 984.5 0.2 79
2019-11-17 05:00:00 5 2 Oeste 4 Nordeste 0 984.5 -0.1 77
2019-11-17 04:00:00 4.6 0 Calma 17 Oeste 0 984.6 -0.1 76
2019-11-17 03:00:00 5.7 10 Oeste 17 Oeste 0 984.3 -0.3 72
2019-11-17 02:00:00 6.4 7 Oeste 21 Oeste 0 984.6 -0.4 67
2019-11-17 01:00:00 7.1 13 Oeste 24 Oeste 0 984.7 -0.4 65
2019-11-17 00:00:00 8.2 14 Oeste 27 Sudoeste 0 984.6 -0.4 59
2019-11-16 23:00:00 8.9 13 Oeste 23 Oeste 0 985 0 56
2019-11-16 22:00:00 8 7 Oeste 19 Sudoeste 0 985.1 0.7 60
2019-11-16 21:00:00 9.3 14 Sudoeste 27 Oeste 0 985 1.1 52
2019-11-16 20:00:00 10 14 Sudoeste 28 Oeste 0 985 1.3 49
2019-11-16 19:00:00 10 13 Oeste 29 Oeste 0 984.4 1 45
2019-11-16 18:00:00 10.5 20 Sudoeste 37 Oeste 0 983.9 0.8 48
2019-11-16 17:00:00 12.6 22 Oeste 41 Oeste 0 983.7 0.2 40
2019-11-16 16:00:00 13.9 18 Oeste 41 Noroeste 0 983.4 -0.5 36
2019-11-16 15:00:00 14.7 17 Oeste 34 Oeste 0 983.1 -1.4 31
2019-11-16 14:00:00 13.7 15 Oeste 31 Oeste 0 983.5 -1.1 38
2019-11-16 13:00:00 12.8 15 Oeste 26 Oeste 0 983.9 -0.4 38
2019-11-16 12:00:00 11.5 12 Sudoeste 20 Sudoeste 0 984.5 1 47
2019-11-16 11:00:00 9.3 7 Oeste 18 Oeste 0 984.6 2 57
2019-11-16 10:00:00 6 5 Oeste 12 Oeste 0 984.3 2.9 69
2019-11-16 09:00:00 1.1 2 Este 9 Este 0 983.5 3 87
2019-11-16 08:00:00 -1.3 4 Sur 10 Nordeste 0 982.6 2.6 92
2019-11-16 07:00:00 -1.4 7 Nordeste 10 Este 0 981.4 2.1 90
2019-11-16 06:00:00 -0.4 5 Sudeste 15 Este 0 980.5 1.8 87
2019-11-16 05:00:00 0.6 5 Nordeste 10 Nordeste 0 980 1.7 85
2019-11-16 04:00:00 3.3 6 Sudoeste 14 Sur 0 979.3 1.4 77
2019-11-16 03:00:00 3.5 7 Sudoeste 16 Sudoeste 0 978.7 1.1 75
2019-11-16 02:00:00 4.6 7 Sudoeste 18 Sudoeste 0 978.3 0.9 70
2019-11-16 01:00:00 4.7 9 Sudoeste 16 Sudoeste 0 977.9 0.9 70
2019-11-16 00:00:00 4.7 9 Sudoeste 17 Sudoeste 0 977.6 1.2 69